Seastreak Highlands — WDE4031 — position and weather

sailwx.info

Track history (hours):
 
Tides and Currents Weather Stations Pressure Air Temp Water Temp Dewpoint Dewpoint Depression Visibility Wind Speed Wind Dir Waves Ship Positions

Seastreak Highlands

Owner: Seastreak llc, atlantic highlands, NJ. More information available from US FCC via Universal Licensing System and Coast Guard Vessel Documentation Center.

Last reported at 2015-Apr-19 20:06 UTC. Time now 2015-Apr-21 03:02 UTC.
Position N 40°25' W 074°02'.

Length 44 m; draft 2 m.

Type: High speed craft. MMSI: 367347670.

Date/timePositionNaut miles runAvg speedWind from/ knotsBaromVisibWave heightAir tempDewpointWater temp
2015-Apr-19 20:06N 40°25' W 074°02'2 2.6
2015-Apr-19 19:23N 40°25' W 073°60'0 0.0
2015-Apr-19 18:18N 40°25' W 073°60'0 0.0
2015-Apr-17 23:31N 40°25' W 073°60'9 9.7
2015-Apr-17 22:33N 40°34' W 074°02'7 7.4
2015-Apr-17 21:34N 40°41' W 074°01'17 7.3
2015-Apr-17 19:18N 40°25' W 073°60'2 0.3
2015-Apr-17 13:34N 40°25' W 074°02'2019.6
2015-Apr-17 12:33N 40°45' W 073°58'1914.4
2015-Apr-17 11:12N 40°25' W 074°02'2 0.1
2015-Apr-16 23:27N 40°25' W 073°60'910.3
2015-Apr-16 22:32N 40°34' W 074°02'9 9.0
2015-Apr-16 21:34N 40°42' W 073°60'1716.9
2015-Apr-16 20:33N 40°25' W 074°01'0 0.1
2015-Apr-16 13:31N 40°25' W 074°01'1919.6
2015-Apr-16 12:33N 40°44' W 073°58'1914.1
2015-Apr-16 11:12N 40°25' W 074°02'1 0.1
2015-Apr-16 02:32N 40°26' W 074°02'1919.1
2015-Apr-16 01:33N 40°45' W 073°58'2019.3
2015-Apr-16 00:31N 40°25' W 073°60'0 0.1
2015-Apr-15 23:22N 40°25' W 073°60'911.2
2015-Apr-15 22:33N 40°33' W 074°02'9 8.6
2015-Apr-15 21:34N 40°42' W 074°00'17 5.0
2015-Apr-15 18:06N 40°25' W 073°60'0 0.0
2015-Apr-15 17:27N 40°25' W 073°60'0 0.0
2015-Apr-15 16:31N 40°25' W 073°60'7 2.1
2015-Apr-15 13:10N 40°31' W 074°02'1422.3
2015-Apr-15 12:33N 40°45' W 073°58'1913.4
2015-Apr-15 11:07N 40°25' W 074°01'1 0.1
2015-Apr-14 23:20N 40°25' W 073°60'810.6
2015-Apr-14 22:33N 40°33' W 074°02'9 9.5
2015-Apr-14 21:34N 40°42' W 074°00'1715.5
2015-Apr-14 20:26N 40°25' W 073°60'0 0.0
2015-Apr-14 19:33N 40°25' W 073°60'0 0.0
2015-Apr-14 18:32N 40°25' W 073°60'0 0.0
2015-Apr-14 17:33N 40°25' W 073°60'0 0.0
2015-Apr-14 16:34N 40°25' W 073°60'0 0.0
2015-Apr-14 15:32N 40°25' W 073°60'0 0.0
2015-Apr-14 14:33N 40°25' W 073°60'2 1.8
2015-Apr-14 13:30N 40°25' W 074°02'2020.8
2015-Apr-14 12:33N 40°45' W 073°58'2018.9
2015-Apr-14 11:31N 40°25' W 074°02'2 0.2
2015-Apr-14 00:33N 40°25' W 073°60'0 0.4
2015-Apr-13 23:33N 40°25' W 074°00'1919.3
2015-Apr-13 22:33N 40°44' W 073°58'1918.4
2015-Apr-13 21:30N 40°25' W 073°60'1818.9
2015-Apr-13 20:34N 40°42' W 073°59'1 1.3
2015-Apr-13 19:34N 40°43' W 073°58'1916.7
2015-Apr-13 18:26N 40°25' W 073°60'0 0.0
2015-Apr-13 17:22N 40°25' W 073°60'0 0.0
2015-Apr-13 16:27N 40°25' W 073°60'0 0.0
2015-Apr-13 15:28N 40°25' W 073°60'0 0.0
2015-Apr-13 14:31N 40°25' W 073°60'7 7.7
2015-Apr-13 13:33N 40°32' W 074°02'6 6.4
2015-Apr-13 12:34N 40°38' W 074°03'3 2.8
2015-Apr-13 11:25N 40°35' W 074°02'4 4.3
2015-Apr-13 10:34N 40°39' W 074°02'1210.7
2015-Apr-13 09:25N 40°27' W 074°01'  
2015-Apr-11 00:33N 40°25' W 074°00'0 0.2
2015-Apr-10 23:33N 40°25' W 074°00'1818.5
2015-Apr-10 22:34N 40°44' W 073°58'1817.6
2015-Apr-10 21:31N 40°25' W 074°01'1717.6
2015-Apr-10 20:34N 40°42' W 073°60'3 2.7
2015-Apr-10 19:33N 40°45' W 073°58'0 0.0
2015-Apr-10 18:33N 40°45' W 073°58'0 0.0
2015-Apr-10 17:33N 40°45' W 073°58'0 0.0
2015-Apr-10 16:33N 40°45' W 073°58'0 0.0
2015-Apr-10 15:33N 40°45' W 073°58'0 0.0
2015-Apr-10 14:33N 40°45' W 073°58'0 0.0
2015-Apr-10 13:33N 40°45' W 073°58'7 6.9
2015-Apr-10 12:33N 40°38' W 074°02'7 7.1
2015-Apr-10 11:33N 40°31' W 074°02'8 7.7
2015-Apr-10 10:34N 40°39' W 074°02'1514.5
2015-Apr-10 09:33N 40°25' W 073°60'0 0.0
2015-Apr-10 00:32N 40°25' W 073°60'0 0.2
2015-Apr-09 23:32N 40°25' W 073°60'1919.6
2015-Apr-09 22:34N 40°44' W 073°58'1918.6
2015-Apr-09 21:33N 40°25' W 074°02'1717.1
2015-Apr-09 20:34N 40°42' W 074°00'  
Track history (hours):
 
Tides and Currents Weather Stations Pressure Air Temp Water Temp Dewpoint Dewpoint Depression Visibility Wind Speed Wind Dir Waves Ship Positions

Seastreak Highlands

Owner: Seastreak llc, atlantic highlands, NJ. More information available from US FCC via Universal Licensing System and Coast Guard Vessel Documentation Center.

Last reported at 2015-Apr-19 20:06 UTC. Time now 2015-Apr-21 03:02 UTC.
Position N 40°25' W 074°02'.

Length 44 m; draft 2 m.

Type: High speed craft. MMSI: 367347670.

Date/timePositionNaut miles runAvg speedWind from/ knotsBaromVisibWave heightAir tempDewpointWater temp
2015-Apr-19 20:06N 40°25' W 074°02'2 2.6
2015-Apr-19 19:23N 40°25' W 073°60'0 0.0
2015-Apr-19 18:18N 40°25' W 073°60'0 0.0
2015-Apr-17 23:31N 40°25' W 073°60'9 9.7
2015-Apr-17 22:33N 40°34' W 074°02'7 7.4
2015-Apr-17 21:34N 40°41' W 074°01'17 7.3
2015-Apr-17 19:18N 40°25' W 073°60'2 0.3
2015-Apr-17 13:34N 40°25' W 074°02'2019.6
2015-Apr-17 12:33N 40°45' W 073°58'1914.4
2015-Apr-17 11:12N 40°25' W 074°02'2 0.1
2015-Apr-16 23:27N 40°25' W 073°60'910.3
2015-Apr-16 22:32N 40°34' W 074°02'9 9.0
2015-Apr-16 21:34N 40°42' W 073°60'1716.9
2015-Apr-16 20:33N 40°25' W 074°01'0 0.1
2015-Apr-16 13:31N 40°25' W 074°01'1919.6
2015-Apr-16 12:33N 40°44' W 073°58'1914.1
2015-Apr-16 11:12N 40°25' W 074°02'1 0.1
2015-Apr-16 02:32N 40°26' W 074°02'1919.1
2015-Apr-16 01:33N 40°45' W 073°58'2019.3
2015-Apr-16 00:31N 40°25' W 073°60'0 0.1
2015-Apr-15 23:22N 40°25' W 073°60'911.2
2015-Apr-15 22:33N 40°33' W 074°02'9 8.6
2015-Apr-15 21:34N 40°42' W 074°00'17 5.0
2015-Apr-15 18:06N 40°25' W 073°60'0 0.0
2015-Apr-15 17:27N 40°25' W 073°60'0 0.0
2015-Apr-15 16:31N 40°25' W 073°60'7 2.1
2015-Apr-15 13:10N 40°31' W 074°02'1422.3
2015-Apr-15 12:33N 40°45' W 073°58'1913.4
2015-Apr-15 11:07N 40°25' W 074°01'1 0.1
2015-Apr-14 23:20N 40°25' W 073°60'810.6
2015-Apr-14 22:33N 40°33' W 074°02'9 9.5
2015-Apr-14 21:34N 40°42' W 074°00'1715.5
2015-Apr-14 20:26N 40°25' W 073°60'0 0.0
2015-Apr-14 19:33N 40°25' W 073°60'0 0.0
2015-Apr-14 18:32N 40°25' W 073°60'0 0.0
2015-Apr-14 17:33N 40°25' W 073°60'0 0.0
2015-Apr-14 16:34N 40°25' W 073°60'0 0.0
2015-Apr-14 15:32N 40°25' W 073°60'0 0.0
2015-Apr-14 14:33N 40°25' W 073°60'2 1.8
2015-Apr-14 13:30N 40°25' W 074°02'2020.8
2015-Apr-14 12:33N 40°45' W 073°58'2018.9
2015-Apr-14 11:31N 40°25' W 074°02'2 0.2
2015-Apr-14 00:33N 40°25' W 073°60'0 0.4
2015-Apr-13 23:33N 40°25' W 074°00'1919.3
2015-Apr-13 22:33N 40°44' W 073°58'1918.4
2015-Apr-13 21:30N 40°25' W 073°60'1818.9
2015-Apr-13 20:34N 40°42' W 073°59'1 1.3
2015-Apr-13 19:34N 40°43' W 073°58'1916.7
2015-Apr-13 18:26N 40°25' W 073°60'0 0.0
2015-Apr-13 17:22N 40°25' W 073°60'0 0.0
2015-Apr-13 16:27N 40°25' W 073°60'0 0.0
2015-Apr-13 15:28N 40°25' W 073°60'0 0.0
2015-Apr-13 14:31N 40°25' W 073°60'7 7.7
2015-Apr-13 13:33N 40°32' W 074°02'6 6.4
2015-Apr-13 12:34N 40°38' W 074°03'3 2.8
2015-Apr-13 11:25N 40°35' W 074°02'4 4.3
2015-Apr-13 10:34N 40°39' W 074°02'1210.7
2015-Apr-13 09:25N 40°27' W 074°01'  
2015-Apr-11 00:33N 40°25' W 074°00'0 0.2
2015-Apr-10 23:33N 40°25' W 074°00'1818.5
2015-Apr-10 22:34N 40°44' W 073°58'1817.6
2015-Apr-10 21:31N 40°25' W 074°01'1717.6
2015-Apr-10 20:34N 40°42' W 073°60'3 2.7
2015-Apr-10 19:33N 40°45' W 073°58'0 0.0
2015-Apr-10 18:33N 40°45' W 073°58'0 0.0
2015-Apr-10 17:33N 40°45' W 073°58'0 0.0
2015-Apr-10 16:33N 40°45' W 073°58'0 0.0
2015-Apr-10 15:33N 40°45' W 073°58'0 0.0
2015-Apr-10 14:33N 40°45' W 073°58'0 0.0
2015-Apr-10 13:33N 40°45' W 073°58'7 6.9
2015-Apr-10 12:33N 40°38' W 074°02'7 7.1
2015-Apr-10 11:33N 40°31' W 074°02'8 7.7
2015-Apr-10 10:34N 40°39' W 074°02'1514.5
2015-Apr-10 09:33N 40°25' W 073°60'0 0.0
2015-Apr-10 00:32N 40°25' W 073°60'0 0.2
2015-Apr-09 23:32N 40°25' W 073°60'1919.6
2015-Apr-09 22:34N 40°44' W 073°58'1918.6
2015-Apr-09 21:33N 40°25' W 074°02'1717.1
2015-Apr-09 20:34N 40°42' W 074°00'  

Dump ship's entire track history